Time;durP1;ratioP1;P1;durP2;ratioP2;P2;SDS_P1;SDS_P2;PMS_P1;PMS_P2;Temp;Humidity;BMP_temperature;BMP_pressure;BME280_temperature;BME280_humidity;BME280_pressure;Samples;Min_cycle;Max_cycle;Signal;HPM_P1;HPM_P2
2020/12/22 00:01:19;;;;;;;2.17;1.20;;;12.90;91.70;;;;;;5088678;28;20032;-78
2020/12/22 00:03:45;;;;;;;1.80;0.95;;;13.00;91.70;;;;;;5072996;28;20057;-79
2020/12/22 00:06:11;;;;;;;2.78;1.65;;;13.00;91.60;;;;;;5072476;28;20031;-79
2020/12/22 00:08:37;;;;;;;2.40;0.98;;;13.10;91.60;;;;;;5090077;28;20039;-78
2020/12/22 00:11:03;;;;;;;1.90;1.17;;;13.10;91.50;;;;;;5083457;28;20028;-79
2020/12/22 00:13:29;;;;;;;1.40;1.02;;;13.10;91.40;;;;;;5071947;28;20589;-79
2020/12/22 00:15:55;;;;;;;2.75;1.48;;;13.20;91.40;;;;;;5056050;28;20052;-79
2020/12/22 00:18:21;;;;;;;1.67;1.55;;;13.20;91.40;;;;;;5066265;28;20127;-78
2020/12/22 00:20:47;;;;;;;1.63;1.20;;;13.20;91.30;;;;;;5072912;28;20032;-80
2020/12/22 00:23:13;;;;;;;2.58;1.50;;;13.20;91.30;;;;;;5084822;28;20036;-78
2020/12/22 00:25:42;;;;;;;2.10;1.25;;;13.30;91.30;;;;;;5092574;28;20391;-78
2020/12/22 00:28:07;;;;;;;1.55;1.10;;;13.30;91.20;;;;;;5093041;28;20051;-79
2020/12/22 00:30:33;;;;;;;1.15;0.93;;;13.30;91.20;;;;;;5074975;28;20805;-78
2020/12/22 00:32:59;;;;;;;1.52;1.05;;;13.40;91.10;;;;;;5076076;28;20039;-78
2020/12/22 00:35:24;;;;;;;1.55;1.00;;;13.40;91.00;;;;;;5071137;28;20032;-78
2020/12/22 00:37:50;;;;;;;1.50;1.10;;;13.50;91.00;;;;;;5072354;28;20032;-77
2020/12/22 00:40:15;;;;;;;1.95;1.13;;;13.50;90.90;;;;;;5075270;28;20398;-77
2020/12/22 00:42:41;;;;;;;2.78;1.20;;;13.50;90.80;;;;;;5110252;28;20035;-78
2020/12/22 00:45:07;;;;;;;1.60;1.38;;;13.50;90.70;;;;;;5075869;28;20027;-79
2020/12/22 00:47:32;;;;;;;2.35;1.33;;;13.50;90.70;;;;;;5110252;28;20063;-79
2020/12/22 00:49:58;;;;;;;1.30;1.00;;;13.60;90.70;;;;;;5111009;28;20031;-79
2020/12/22 00:52:23;;;;;;;1.30;1.10;;;13.60;90.80;;;;;;5057952;28;20027;-79
2020/12/22 00:54:49;;;;;;;1.90;1.30;;;13.50;90.80;;;;;;5109724;28;20028;-79
2020/12/22 00:57:16;;;;;;;1.40;1.30;;;13.50;90.90;;;;;;5092990;28;20027;-78
2020/12/22 00:59:41;;;;;;;2.55;1.20;;;13.50;91.00;;;;;;5091699;28;20036;-78
2020/12/22 01:02:08;;;;;;;1.90;1.20;;;13.50;91.00;;;;;;5075804;28;20027;-78
2020/12/22 01:04:34;;;;;;;2.72;1.38;;;13.50;91.10;;;;;;5091709;28;20112;-78
2020/12/22 01:07:00;;;;;;;2.70;1.50;;;13.50;91.10;;;;;;5092192;28;20047;-78
2020/12/22 01:09:26;;;;;;;2.13;1.20;;;13.50;91.10;;;;;;5090896;28;20024;-78
2020/12/22 01:11:52;;;;;;;1.75;1.20;;;13.50;91.10;;;;;;5110673;28;20042;-79
2020/12/22 01:14:17;;;;;;;1.60;1.10;;;13.50;91.10;;;;;;5075223;28;20112;-78
2020/12/22 01:16:43;;;;;;;2.72;1.10;;;13.60;91.10;;;;;;5074498;28;20072;-78
2020/12/22 01:19:09;;;;;;;2.13;1.55;;;13.60;91.00;;;;;;5075669;28;20446;-78
2020/12/22 01:21:35;;;;;;;2.80;1.45;;;13.60;91.00;;;;;;5090901;28;20495;-78
2020/12/22 01:24:04;;;;;;;1.20;1.00;;;13.60;91.00;;;;;;5063775;28;20528;-78
2020/12/22 01:26:30;;;;;;;1.98;1.33;;;13.60;91.10;;;;;;5075293;28;20672;-78
2020/12/22 01:28:56;;;;;;;1.83;0.90;;;13.60;91.10;;;;;;5110178;28;20065;-78
2020/12/22 01:31:31;;;;;;;1.75;1.15;;;13.60;91.20;;;;;;5109411;28;20038;-77
2020/12/22 01:33:58;;;;;;;2.67;0.90;;;13.60;91.20;;;;;;5075088;28;20035;-79
2020/12/22 01:36:25;;;;;;;2.67;1.02;;;13.60;91.30;;;;;;5109623;28;20031;-78
2020/12/22 01:38:51;;;;;;;3.38;1.23;;;13.60;91.30;;;;;;5092177;28;20028;-78
2020/12/22 01:41:17;;;;;;;1.27;0.98;;;13.60;91.30;;;;;;5091891;28;20116;-78
2020/12/22 01:43:59;;;;;;;2.97;0.80;;;13.60;91.30;;;;;;5109274;28;20067;-78
2020/12/22 01:46:31;;;;;;;1.77;0.90;;;13.60;91.20;;;;;;5092199;28;20024;-78
2020/12/22 01:48:58;;;;;;;2.00;0.80;;;13.60;91.20;;;;;;5095150;28;20748;-78
2020/12/22 01:51:25;;;;;;;1.80;0.80;;;13.60;91.20;;;;;;5094708;28;20039;-77
2020/12/22 01:53:50;;;;;;;4.03;0.80;;;13.60;91.20;;;;;;5073960;28;20056;-78
2020/12/22 01:56:16;;;;;;;1.90;0.70;;;13.60;91.10;;;;;;5042242;28;20047;-78
2020/12/22 01:58:42;;;;;;;3.00;0.90;;;13.60;91.10;;;;;;5074114;28;20032;-78
2020/12/22 02:01:08;;;;;;;3.30;0.73;;;13.70;91.10;;;;;;5059323;28;20040;-78
2020/12/22 02:03:34;;;;;;;2.67;0.57;;;13.70;91.00;;;;;;5058454;28;20069;-78
2020/12/22 02:06:00;;;;;;;3.13;0.60;;;13.70;91.00;;;;;;5074786;28;20067;-78
2020/12/22 02:08:25;;;;;;;2.40;0.50;;;13.70;91.00;;;;;;5074466;28;20107;-78
2020/12/22 02:10:51;;;;;;;1.70;0.50;;;13.70;90.90;;;;;;5109297;28;20118;-79
2020/12/22 02:13:17;;;;;;;1.95;0.50;;;13.70;90.90;;;;;;5074410;28;20073;-78
2020/12/22 02:15:43;;;;;;;2.40;0.60;;;13.70;90.90;;;;;;5091725;28;20600;-78
2020/12/22 02:18:09;;;;;;;2.33;0.60;;;13.80;91.00;;;;;;5112227;28;20032;-78
2020/12/22 02:20:34;;;;;;;3.17;0.68;;;13.70;91.00;;;;;;5076847;28;20032;-78
2020/12/22 02:23:00;;;;;;;3.10;0.60;;;13.80;91.00;;;;;;5078201;28;20036;-78
2020/12/22 02:25:25;;;;;;;1.30;0.43;;;13.70;91.00;;;;;;5060684;28;20414;-79
2020/12/22 02:27:51;;;;;;;4.28;0.63;;;13.80;91.00;;;;;;5112754;28;20107;-78
2020/12/22 02:30:17;;;;;;;2.90;0.60;;;13.80;90.90;;;;;;5078036;28;20034;-78
2020/12/22 02:32:43;;;;;;;2.45;0.47;;;13.80;90.90;;;;;;5060815;28;20676;-77
2020/12/22 02:35:08;;;;;;;2.22;0.40;;;13.80;90.80;;;;;;5077857;28;20024;-78
2020/12/22 02:37:34;;;;;;;2.95;0.50;;;13.80;90.70;;;;;;5077126;28;20115;-78
2020/12/22 02:39:59;;;;;;;3.63;0.50;;;13.90;90.70;;;;;;5068652;28;20028;-78
2020/12/22 02:42:25;;;;;;;2.55;0.50;;;13.90;90.60;;;;;;5105603;28;20032;-78
2020/12/22 02:44:51;;;;;;;3.65;0.50;;;13.90;90.50;;;;;;5094411;28;20379;-78
2020/12/22 02:47:16;;;;;;;3.58;0.40;;;13.90;90.40;;;;;;5061155;28;20184;-78
2020/12/22 02:49:43;;;;;;;3.28;0.38;;;13.90;90.30;;;;;;5111945;28;20047;-78
2020/12/22 02:52:10;;;;;;;4.10;0.35;;;14.00;90.20;;;;;;5112600;28;20024;-78
2020/12/22 02:54:36;;;;;;;1.75;0.43;;;14.00;90.20;;;;;;5076855;28;20027;-78
2020/12/22 02:57:02;;;;;;;1.27;0.30;;;14.00;90.20;;;;;;5094391;28;20027;-77
2020/12/22 02:59:28;;;;;;;2.35;0.30;;;14.00;90.10;;;;;;5060170;28;20032;-77
2020/12/22 03:01:53;;;;;;;3.08;0.40;;;14.00;90.10;;;;;;5092845;28;20122;-79
2020/12/22 03:04:19;;;;;;;3.78;0.30;;;14.00;90.10;;;;;;5075508;28;20040;-77
2020/12/22 03:06:45;;;;;;;3.13;0.40;;;14.00;90.10;;;;;;5111047;28;20031;-77
2020/12/22 03:09:11;;;;;;;1.35;0.30;;;14.00;90.10;;;;;;5111601;28;20034;-79
2020/12/22 03:11:37;;;;;;;1.25;0.30;;;14.00;90.10;;;;;;5075913;28;20086;-77
2020/12/22 03:14:02;;;;;;;0.63;0.20;;;14.00;90.10;;;;;;5112679;28;20041;-76
2020/12/22 03:16:28;;;;;;;3.38;0.30;;;14.00;90.20;;;;;;5092741;28;20043;-76
2020/12/22 03:18:54;;;;;;;2.38;0.30;;;14.00;90.20;;;;;;5093800;28;20039;-76
2020/12/22 03:21:20;;;;;;;2.17;0.50;;;14.00;90.30;;;;;;5077122;28;20051;-77
2020/12/22 03:23:46;;;;;;;2.38;0.30;;;14.00;90.30;;;;;;5075944;28;20036;-79
2020/12/22 03:26:11;;;;;;;4.18;0.50;;;13.90;90.40;;;;;;5093755;28;20116;-77
2020/12/22 03:28:37;;;;;;;2.13;0.25;;;13.90;90.40;;;;;;5110991;28;20036;-77
2020/12/22 03:31:03;;;;;;;3.03;0.30;;;13.90;90.50;;;;;;5093734;28;20067;-77
2020/12/22 03:33:29;;;;;;;1.95;0.40;;;13.90;90.60;;;;;;5111008;28;20019;-76
2020/12/22 03:35:55;;;;;;;2.17;0.43;;;13.90;90.60;;;;;;5093393;28;20035;-77
2020/12/22 03:38:21;;;;;;;2.53;0.40;;;13.90;90.70;;;;;;5093716;28;20015;-77
2020/12/22 03:40:47;;;;;;;1.30;0.30;;;13.80;90.80;;;;;;5092107;28;20089;-76
2020/12/22 03:43:13;;;;;;;1.27;0.40;;;13.80;90.90;;;;;;5072553;28;20035;-77
2020/12/22 03:45:39;;;;;;;2.05;0.40;;;13.80;90.90;;;;;;5072387;28;20032;-77
2020/12/22 03:48:05;;;;;;;2.20;0.30;;;13.80;90.90;;;;;;5091158;28;20062;-77
2020/12/22 03:50:31;;;;;;;1.65;0.30;;;13.90;91.00;;;;;;5092303;28;20032;-77
2020/12/22 03:53:00;;;;;;;1.50;0.30;;;13.90;91.00;;;;;;5092903;28;20081;-77
2020/12/22 03:55:26;;;;;;;0.60;0.20;;;13.80;91.00;;;;;;5111119;28;20036;-77
2020/12/22 03:57:52;;;;;;;1.90;0.30;;;13.90;91.20;;;;;;5092767;28;20112;-77
2020/12/22 04:00:17;;;;;;;1.33;0.30;;;13.90;91.00;;;;;;5110946;28;20520;-77
2020/12/22 04:02:43;;;;;;;1.05;0.40;;;13.90;91.00;;;;;;5092333;28;20454;-77
2020/12/22 04:05:09;;;;;;;0.88;0.30;;;13.90;91.00;;;;;;5076192;28;20511;-77
2020/12/22 04:07:35;;;;;;;1.00;0.30;;;13.90;91.00;;;;;;5109187;28;20371;-77
2020/12/22 04:10:02;;;;;;;1.02;0.25;;;13.90;91.00;;;;;;5075442;28;20042;-77
2020/12/22 04:12:28;;;;;;;0.32;0.10;;;13.80;91.00;;;;;;5092350;28;20054;-76
2020/12/22 04:14:53;;;;;;;0.80;0.20;;;13.90;91.00;;;;;;5092672;28;20031;-77
2020/12/22 04:17:19;;;;;;;1.52;0.20;;;13.90;91.00;;;;;;5093163;28;20126;-77
2020/12/22 04:19:44;;;;;;;0.82;0.10;;;13.90;91.00;;;;;;5092077;28;20160;-77
2020/12/22 04:22:10;;;;;;;0.77;0.13;;;13.90;91.00;;;;;;5092853;28;20467;-77
2020/12/22 04:24:36;;;;;;;0.40;0.10;;;13.90;91.00;;;;;;5075238;28;20534;-77
2020/12/22 04:27:01;;;;;;;0.35;0.17;;;13.90;91.00;;;;;;5092622;28;20384;-77
2020/12/22 04:29:27;;;;;;;1.60;0.20;;;13.90;91.00;;;;;;5110739;28;20479;-77
2020/12/22 04:31:53;;;;;;;3.40;0.20;;;13.90;91.00;;;;;;5110404;28;20119;-78
2020/12/22 04:34:18;;;;;;;1.05;0.20;;;14.00;90.90;;;;;;5092805;28;20412;-77
2020/12/22 04:36:44;;;;;;;0.68;0.20;;;14.00;90.90;;;;;;5092375;28;20047;-77
2020/12/22 04:39:09;;;;;;;0.90;0.20;;;14.00;90.80;;;;;;5092411;28;20429;-76
2020/12/22 04:41:37;;;;;;;1.13;0.20;;;14.00;90.80;;;;;;5091321;28;20115;-76
2020/12/22 04:44:03;;;;;;;0.35;0.20;;;14.00;90.70;;;;;;5091873;28;20023;-77
2020/12/22 04:46:31;;;;;;;0.68;0.20;;;14.00;90.80;;;;;;5092507;28;20028;-77
2020/12/22 04:48:58;;;;;;;1.08;0.20;;;14.00;90.90;;;;;;5075239;28;20039;-77
2020/12/22 04:51:24;;;;;;;1.60;0.20;;;14.00;90.90;;;;;;5092164;28;20036;-77
2020/12/22 04:53:50;;;;;;;1.27;0.20;;;14.00;91.00;;;;;;5110182;28;20024;-76
2020/12/22 04:56:19;;;;;;;0.20;0.10;;;14.00;91.00;;;;;;5092593;28;20023;-77
2020/12/22 04:58:44;;;;;;;2.58;0.28;;;14.00;91.00;;;;;;5091404;28;20118;-76
2020/12/22 05:01:10;;;;;;;0.82;0.20;;;14.00;91.10;;;;;;5092511;28;20116;-77
2020/12/22 05:03:36;;;;;;;0.52;0.20;;;14.00;91.10;;;;;;5058180;28;20436;-77
2020/12/22 05:06:02;;;;;;;0.32;0.20;;;14.00;91.10;;;;;;5092658;28;20039;-76
2020/12/22 05:08:27;;;;;;;4.10;0.30;;;14.00;91.20;;;;;;5092650;28;20083;-77
2020/12/22 05:10:53;;;;;;;0.65;0.20;;;14.00;91.20;;;;;;5091717;28;20031;-77
2020/12/22 05:13:20;;;;;;;1.13;0.30;;;14.00;91.20;;;;;;5110827;28;20142;-78
2020/12/22 05:15:51;;;;;;;0.50;0.28;;;13.90;91.30;;;;;;5087438;28;20060;-78
2020/12/22 05:18:23;;;;;;;1.98;0.30;;;13.90;91.30;;;;;;5072098;28;20052;-77
2020/12/22 05:20:50;;;;;;;0.95;0.30;;;13.90;91.40;;;;;;5089460;28;20031;-77
2020/12/22 05:23:19;;;;;;;1.23;0.38;;;13.90;91.40;;;;;;5090553;28;20468;-77
2020/12/22 05:25:47;;;;;;;1.60;0.30;;;13.90;91.50;;;;;;5092153;28;20020;-78
2020/12/22 05:28:19;;;;;;;1.13;0.20;;;13.90;91.50;;;;;;5075939;28;20553;-77
2020/12/22 05:30:46;;;;;;;1.07;0.23;;;13.90;91.50;;;;;;5097327;28;20038;-77
2020/12/22 05:33:12;;;;;;;1.48;0.30;;;13.90;91.60;;;;;;5078727;28;20028;-77
2020/12/22 05:35:44;;;;;;;0.60;0.30;;;13.90;91.60;;;;;;5099966;28;20057;-77
2020/12/22 05:38:11;;;;;;;0.85;0.30;;;13.90;91.70;;;;;;5095590;28;20024;-77
2020/12/22 05:40:39;;;;;;;1.13;0.30;;;13.90;91.70;;;;;;5097674;27;20031;-76
2020/12/22 05:43:06;;;;;;;1.10;0.30;;;13.90;91.80;;;;;;5103561;28;20035;-76
2020/12/22 05:45:36;;;;;;;1.75;0.40;;;13.80;91.80;;;;;;5111039;28;20046;-76
2020/12/22 05:48:03;;;;;;;1.42;0.40;;;13.80;91.80;;;;;;5112695;27;20039;-76
2020/12/22 05:50:28;;;;;;;0.70;0.40;;;13.80;91.90;;;;;;5093993;27;20176;-77
2020/12/22 05:52:56;;;;;;;0.98;0.45;;;13.90;91.90;;;;;;5113020;28;20019;-77
2020/12/22 05:55:34;;;;;;;2.90;0.60;;;13.90;91.80;;;;;;5078505;28;20024;-75
2020/12/22 05:58:13;;;;;;;1.88;0.52;;;13.90;91.80;;;;;;5113308;28;20038;-77
2020/12/22 06:00:43;;;;;;;3.00;0.63;;;13.80;91.80;;;;;;5094521;28;20078;-76
2020/12/22 06:03:11;;;;;;;2.05;0.80;;;13.80;91.90;;;;;;5095399;28;20081;-77
2020/12/22 06:05:42;;;;;;;0.98;0.60;;;13.80;91.90;;;;;;5112892;28;20027;-76
2020/12/22 06:08:09;;;;;;;3.30;0.80;;;13.80;91.90;;;;;;5095139;28;20036;-76
2020/12/22 06:10:36;;;;;;;1.60;0.80;;;13.80;91.90;;;;;;5094671;28;20103;-77
2020/12/22 06:13:03;;;;;;;1.48;0.70;;;13.80;91.90;;;;;;5113854;28;20111;-78
2020/12/22 06:15:28;;;;;;;1.85;0.80;;;13.80;91.90;;;;;;5061857;28;20115;-78
2020/12/22 06:17:54;;;;;;;1.58;0.70;;;13.70;91.90;;;;;;5077023;28;20317;-78
2020/12/22 06:20:25;;;;;;;2.08;0.80;;;13.70;91.90;;;;;;5112705;27;21000;-78
2020/12/22 06:22:58;;;;;;;2.65;1.08;;;13.70;91.90;;;;;;5112077;28;20026;-78
2020/12/22 06:25:24;;;;;;;6.45;1.02;;;13.70;91.80;;;;;;5091281;28;20032;-79
2020/12/22 06:27:50;;;;;;;1.90;1.08;;;13.70;91.70;;;;;;5091966;28;20054;-78
2020/12/22 06:30:17;;;;;;;3.40;2.10;;;13.80;91.60;;;;;;5074605;28;20372;-78
2020/12/22 06:32:44;;;;;;;2.15;0.80;;;13.80;91.50;;;;;;5091623;28;20036;-79
2020/12/22 06:35:39;;;;;;;2.95;1.23;;;13.80;91.30;;;;;;5074031;28;20028;-78
2020/12/22 06:38:05;;;;;;;2.20;1.60;;;13.90;91.20;;;;;;5063439;28;20105;-78
2020/12/22 06:41:06;;;;;;;1.52;0.80;;;13.90;91.20;;;;;;5094924;28;20035;-78
2020/12/22 06:43:41;;;;;;;2.38;1.70;;;13.90;91.10;;;;;;5013366;28;20101;-78
2020/12/22 06:46:33;;;;;;;1.63;1.15;;;13.90;91.10;;;;;;5083134;28;20032;-79
2020/12/22 06:48:59;;;;;;;1.70;1.10;;;13.90;91.00;;;;;;5111248;28;20032;-78
2020/12/22 06:51:31;;;;;;;2.47;0.85;;;13.90;90.90;;;;;;5094725;28;20024;-79
2020/12/22 06:54:01;;;;;;;2.75;1.83;;;13.90;90.90;;;;;;5112553;28;20011;-77
2020/12/22 06:56:54;;;;;;;1.60;1.10;;;13.90;90.90;;;;;;5094332;28;20114;-78
2020/12/22 06:59:45;;;;;;;1.60;0.85;;;13.90;90.90;;;;;;5078426;28;20031;-78
2020/12/22 07:02:46;;;;;;;1.92;1.30;;;13.80;90.80;;;;;;5094703;28;20360;-78
2020/12/22 07:05:44;;;;;;;1.65;0.73;;;13.80;90.80;;;;;;5013108;28;20060;-78
2020/12/22 07:08:15;;;;;;;3.33;1.65;;;13.80;90.90;;;;;;5112672;28;20076;-77
2020/12/22 07:10:44;;;;;;;2.05;1.00;;;13.70;90.90;;;;;;5093071;28;20032;-77
2020/12/22 07:13:11;;;;;;;3.92;1.90;;;13.70;90.90;;;;;;5112696;28;20023;-79
2020/12/22 07:15:43;;;;;;;3.15;1.30;;;13.70;90.80;;;;;;5094059;28;20062;-77
2020/12/22 07:18:12;;;;;;;2.72;0.90;;;13.70;90.70;;;;;;5093752;28;20027;-78
2020/12/22 07:20:42;;;;;;;2.00;1.00;;;13.70;90.60;;;;;;5112254;28;20032;-77
2020/12/22 07:23:13;;;;;;;1.80;0.80;;;13.70;90.50;;;;;;5077301;28;20601;-79
2020/12/22 07:25:39;;;;;;;2.60;0.98;;;13.70;90.40;;;;;;5077399;28;20058;-77
2020/12/22 07:28:06;;;;;;;2.78;0.80;;;13.80;90.30;;;;;;5095038;28;20447;-78
2020/12/22 07:30:32;;;;;;;2.30;1.00;;;13.70;90.20;;;;;;5113613;28;20134;-78
2020/12/22 07:33:00;;;;;;;2.38;0.98;;;13.70;90.10;;;;;;5090897;28;20149;-78
2020/12/22 07:35:29;;;;;;;2.17;1.10;;;13.70;90.30;;;;;;5075371;28;20027;-78
2020/12/22 07:38:06;;;;;;;2.45;1.00;;;13.70;90.10;;;;;;5074995;28;20036;-78
2020/12/22 07:40:34;;;;;;;1.80;0.85;;;13.80;90.10;;;;;;5084694;28;20498;-77
2020/12/22 07:43:11;;;;;;;2.92;0.60;;;13.70;90.20;;;;;;5112828;28;20020;-78
2020/12/22 07:45:46;;;;;;;2.28;0.60;;;13.80;90.30;;;;;;5099110;28;20023;-80
2020/12/22 07:48:12;;;;;;;1.92;0.85;;;13.70;90.40;;;;;;5079224;28;20070;-78
2020/12/22 07:50:37;;;;;;;1.75;0.80;;;13.70;90.40;;;;;;5082172;28;20059;-79
2020/12/22 07:53:03;;;;;;;2.72;0.60;;;13.70;90.50;;;;;;5065368;28;20063;-78
2020/12/22 07:55:39;;;;;;;2.13;0.95;;;13.70;90.50;;;;;;5097546;28;20068;-77
2020/12/22 07:58:06;;;;;;;3.75;1.75;;;13.70;90.50;;;;;;5091780;28;20031;-78
2020/12/22 08:00:32;;;;;;;1.65;0.85;;;13.70;90.40;;;;;;5086110;28;20055;-79
2020/12/22 08:03:12;;;;;;;4.80;1.30;;;13.70;90.30;;;;;;5073924;28;20035;-76
2020/12/22 08:05:37;;;;;;;1.98;0.70;;;13.70;90.30;;;;;;5092700;28;20035;-77
2020/12/22 08:08:04;;;;;;;2.95;0.80;;;13.80;90.30;;;;;;5093797;28;20025;-78
2020/12/22 08:10:29;;;;;;;1.73;0.60;;;13.80;90.20;;;;;;5060114;28;20093;-78
2020/12/22 08:12:57;;;;;;;1.27;0.38;;;13.80;90.10;;;;;;5091785;28;20057;-78
2020/12/22 08:15:23;;;;;;;2.47;0.50;;;13.80;89.90;;;;;;5111525;28;20028;-78
2020/12/22 08:17:55;;;;;;;2.40;0.70;;;13.80;89.70;;;;;;5069891;27;20040;-76
2020/12/22 08:20:21;;;;;;;4.05;0.90;;;13.80;89.70;;;;;;5106356;27;20035;-80
2020/12/22 08:22:47;;;;;;;2.50;1.20;;;13.80;89.60;;;;;;5119513;27;20028;-76
2020/12/22 08:25:13;;;;;;;3.15;0.70;;;13.80;89.40;;;;;;5072692;28;20028;-78
2020/12/22 08:27:38;;;;;;;3.03;1.13;;;13.80;89.30;;;;;;5076477;28;20498;-78
2020/12/22 08:30:17;;;;;;;2.08;0.40;;;13.80;89.40;;;;;;5088621;28;20636;-78
2020/12/22 08:32:45;;;;;;;2.58;0.70;;;13.80;89.20;;;;;;5080130;28;20039;-77
2020/12/22 08:35:11;;;;;;;2.70;0.63;;;13.90;88.90;;;;;;5110464;28;20019;-78
2020/12/22 08:37:36;;;;;;;3.17;1.10;;;13.90;87.80;;;;;;5111109;28;20031;-78
2020/12/22 08:40:03;;;;;;;2.60;0.70;;;14.00;87.30;;;;;;5075901;28;20117;-79
2020/12/22 08:42:30;;;;;;;3.00;0.85;;;14.00;87.10;;;;;;5093562;28;20468;-79
2020/12/22 08:44:55;;;;;;;3.80;0.73;;;14.00;86.80;;;;;;5109986;28;20062;-78
2020/12/22 08:47:21;;;;;;;3.55;1.25;;;14.00;86.70;;;;;;5092576;28;20476;-78
2020/12/22 08:49:48;;;;;;;2.60;1.10;;;14.00;86.30;;;;;;5091722;28;20032;-79
2020/12/22 08:52:17;;;;;;;4.13;1.48;;;14.00;86.40;;;;;;5110509;28;20042;-79
2020/12/22 08:54:44;;;;;;;2.42;0.50;;;14.00;86.30;;;;;;5105012;28;20032;-80
2020/12/22 08:57:20;;;;;;;5.28;1.75;;;14.00;86.20;;;;;;5084430;28;20019;-80
2020/12/22 08:59:46;;;;;;;2.78;0.75;;;14.00;86.20;;;;;;5090147;28;20467;-78
2020/12/22 09:02:26;;;;;;;4.38;1.38;;;14.10;85.80;;;;;;5077872;28;20035;-79
2020/12/22 09:04:51;;;;;;;4.15;0.73;;;14.10;85.70;;;;;;5108530;28;20041;-79
2020/12/22 09:07:17;;;;;;;3.67;1.48;;;14.10;85.40;;;;;;5094127;28;20111;-78
2020/12/22 09:09:43;;;;;;;4.47;1.17;;;14.20;85.60;;;;;;5114613;28;20032;-78
2020/12/22 09:12:11;;;;;;;3.08;1.55;;;14.20;85.60;;;;;;5112926;28;20036;-78
2020/12/22 09:14:41;;;;;;;4.20;1.88;;;14.20;85.60;;;;;;5112468;28;20028;-79
2020/12/22 09:17:11;;;;;;;2.72;1.27;;;14.20;85.70;;;;;;5094037;28;20878;-78
2020/12/22 09:19:46;;;;;;;6.47;2.75;;;14.20;85.60;;;;;;5109253;28;20035;-79
2020/12/22 09:22:14;;;;;;;4.30;2.17;;;14.20;85.60;;;;;;5093617;28;20031;-78
2020/12/22 09:24:41;;;;;;;8.38;3.38;;;14.10;85.90;;;;;;5102085;28;20020;-79
2020/12/22 09:27:09;;;;;;;5.20;1.55;;;14.10;86.40;;;;;;5062646;28;20080;-77
2020/12/22 09:29:40;;;;;;;4.10;1.75;;;14.10;86.70;;;;;;5106023;28;20081;-78
2020/12/22 09:32:11;;;;;;;3.05;1.40;;;13.90;87.10;;;;;;5072559;28;20063;-80
2020/12/22 09:34:38;;;;;;;2.97;2.05;;;13.80;87.70;;;;;;5110851;28;20036;-80
2020/12/22 09:37:07;;;;;;;3.58;1.73;;;13.80;88.10;;;;;;5076128;28;20028;-79
2020/12/22 09:39:34;;;;;;;7.35;4.45;;;13.80;88.30;;;;;;5090131;28;20036;-80
2020/12/22 09:42:01;;;;;;;4.72;2.85;;;13.70;88.50;;;;;;5063095;28;20032;-79
2020/12/22 09:44:27;;;;;;;4.80;1.02;;;13.70;88.70;;;;;;5085890;28;20039;-79
2020/12/22 09:46:54;;;;;;;2.58;1.75;;;13.70;88.80;;;;;;5082522;28;20020;-77
2020/12/22 09:49:21;;;;;;;4.80;1.55;;;13.80;88.70;;;;;;5089876;28;20047;-79
2020/12/22 09:51:47;;;;;;;4.32;1.65;;;13.90;88.60;;;;;;5105326;28;20120;-77
2020/12/22 09:54:12;;;;;;;4.18;1.80;;;14.00;88.40;;;;;;5102423;28;20069;-80
2020/12/22 09:56:38;;;;;;;4.53;1.42;;;14.00;88.30;;;;;;5104855;28;20458;-80
2020/12/22 09:59:04;;;;;;;4.07;1.85;;;14.00;88.00;;;;;;5085477;28;20024;-80
2020/12/22 10:01:30;;;;;;;6.78;3.95;;;14.00;88.00;;;;;;5085989;28;20036;-80
2020/12/22 10:03:56;;;;;;;8.13;3.80;;;14.00;88.30;;;;;;5111423;28;20023;-80
2020/12/22 10:06:24;;;;;;;2.90;1.95;;;14.00;87.90;;;;;;5099534;28;20039;-80
2020/12/22 10:08:51;;;;;;;3.28;1.77;;;14.00;88.00;;;;;;5094016;28;20028;-79
2020/12/22 10:11:18;;;;;;;3.83;2.00;;;14.00;88.00;;;;;;5096203;28;20026;-80
2020/12/22 10:13:44;;;;;;;4.18;2.10;;;14.00;88.10;;;;;;5077151;28;20039;-79
2020/12/22 10:16:28;;;;;;;5.60;3.78;;;14.00;88.00;;;;;;5094861;28;20040;-81
2020/12/22 10:18:53;;;;;;;3.83;2.40;;;13.90;87.80;;;;;;5106464;28;20042;-79
2020/12/22 10:21:20;;;;;;;14.45;7.03;;;13.90;87.80;;;;;;5106440;28;20028;-80
2020/12/22 10:23:47;;;;;;;2.85;1.58;;;13.90;88.00;;;;;;5064867;28;20033;-79
2020/12/22 10:26:16;;;;;;;3.88;2.03;;;13.80;88.00;;;;;;5075304;28;20035;-79
2020/12/22 10:28:43;;;;;;;3.85;0.98;;;13.70;88.20;;;;;;5088758;28;20016;-78
2020/12/22 10:31:14;;;;;;;3.10;1.20;;;13.60;88.50;;;;;;5072415;28;20031;-79
2020/12/22 10:33:40;;;;;;;2.55;1.40;;;13.50;88.80;;;;;;5106755;28;20038;-78
2020/12/22 10:36:06;;;;;;;3.20;1.80;;;13.50;88.90;;;;;;5084489;28;20484;-78
2020/12/22 10:38:31;;;;;;;4.82;3.15;;;13.50;89.00;;;;;;5111826;28;20031;-79
2020/12/22 10:40:57;;;;;;;3.85;1.75;;;13.60;89.10;;;;;;5094235;28;20032;-79
2020/12/22 10:43:23;;;;;;;2.33;0.93;;;13.60;89.10;;;;;;5093683;28;20031;-79
2020/12/22 10:45:48;;;;;;;3.83;1.00;;;13.60;88.40;;;;;;5078379;28;20451;-76
2020/12/22 10:48:14;;;;;;;6.80;3.22;;;13.60;88.20;;;;;;5093314;28;20123;-79
2020/12/22 10:50:40;;;;;;;4.32;1.88;;;13.60;88.20;;;;;;5113319;28;20464;-79
2020/12/22 10:53:07;;;;;;;3.90;1.67;;;13.60;88.20;;;;;;5091452;28;20073;-79
2020/12/22 10:55:33;;;;;;;4.00;1.15;;;13.60;88.20;;;;;;5090814;28;20268;-79
2020/12/22 10:57:59;;;;;;;4.85;2.55;;;13.60;88.10;;;;;;5091692;28;20108;-80
2020/12/22 11:00:26;;;;;;;4.60;2.88;;;13.70;88.00;;;;;;5076015;28;20441;-78
2020/12/22 11:02:56;;;;;;;3.15;1.88;;;13.70;87.90;;;;;;5111477;28;20030;-77
2020/12/22 11:08:07;;;;;;;2.83;1.20;;;13.70;87.30;;;;;;5096097;28;20051;-78
2020/12/22 11:10:33;;;;;;;3.83;1.40;;;13.80;87.20;;;;;;5112983;28;20032;-80
2020/12/22 11:12:59;;;;;;;3.50;1.23;;;13.80;87.00;;;;;;5088834;28;21072;-79
2020/12/22 11:15:24;;;;;;;2.15;0.68;;;13.90;86.40;;;;;;5069302;28;20028;-80
2020/12/22 11:17:50;;;;;;;3.20;0.80;;;13.90;85.90;;;;;;5092371;28;20044;-79
2020/12/22 11:20:16;;;;;;;3.65;1.50;;;13.90;85.90;;;;;;5076318;28;20042;-79
2020/12/22 11:22:42;;;;;;;3.15;1.08;;;13.90;86.00;;;;;;5075086;28;20420;-79
2020/12/22 11:25:07;;;;;;;3.17;1.60;;;13.90;86.10;;;;;;5092793;28;20123;-79
2020/12/22 11:27:33;;;;;;;5.75;2.50;;;13.90;86.30;;;;;;5093983;28;20042;-81
2020/12/22 11:29:58;;;;;;;3.70;1.33;;;14.00;86.20;;;;;;5075786;28;20034;-81
2020/12/22 11:32:24;;;;;;;3.78;1.80;;;14.10;86.00;;;;;;5094351;28;20467;-82
2020/12/22 11:34:50;;;;;;;4.38;1.63;;;14.30;85.80;;;;;;5095616;28;20084;-80
2020/12/22 11:37:15;;;;;;;2.03;1.17;;;14.50;85.40;;;;;;5095820;28;20813;-82
2020/12/22 11:39:41;;;;;;;3.30;1.30;;;14.70;85.10;;;;;;5096705;28;20046;-81
2020/12/22 11:42:07;;;;;;;3.05;1.33;;;14.90;84.30;;;;;;5113196;28;20769;-80
2020/12/22 11:44:32;;;;;;;4.40;1.83;;;15.10;83.70;;;;;;5078346;28;20055;-80
2020/12/22 11:46:58;;;;;;;4.47;1.23;;;15.10;82.70;;;;;;5078736;28;20031;-82
2020/12/22 11:49:25;;;;;;;3.97;1.42;;;15.10;82.10;;;;;;5089911;28;20089;-82
2020/12/22 11:51:57;;;;;;;3.95;0.90;;;15.00;82.30;;;;;;5092584;28;20123;-83
2020/12/22 11:54:23;;;;;;;4.45;1.33;;;15.00;82.40;;;;;;5077857;28;20028;-82
2020/12/22 11:56:49;;;;;;;2.80;0.90;;;15.00;82.30;;;;;;5115702;28;20031;-81
2020/12/22 11:59:15;;;;;;;3.70;1.45;;;15.00;82.50;;;;;;5093251;28;20092;-82
2020/12/22 12:01:41;;;;;;;4.10;1.90;;;15.00;82.60;;;;;;5077900;28;20020;-82
2020/12/22 12:04:07;;;;;;;3.75;1.05;;;15.10;82.70;;;;;;5091493;28;20486;-81
2020/12/22 12:06:32;;;;;;;3.75;1.50;;;15.10;82.50;;;;;;5090059;28;20043;-82
2020/12/22 12:08:58;;;;;;;2.90;1.25;;;15.10;82.20;;;;;;5077892;28;20534;-79
2020/12/22 12:11:23;;;;;;;3.08;1.58;;;15.20;82.00;;;;;;5093424;28;20061;-81
2020/12/22 12:13:49;;;;;;;5.35;1.45;;;15.30;82.10;;;;;;5060072;28;20035;-81
2020/12/22 12:16:18;;;;;;;2.83;1.40;;;15.30;81.90;;;;;;5052215;28;20313;-81
2020/12/22 12:18:47;;;;;;;4.65;2.72;;;15.40;81.50;;;;;;5069509;28;20115;-81
2020/12/22 12:21:16;;;;;;;2.22;0.57;;;15.40;81.60;;;;;;5067615;28;20036;-80
2020/12/22 12:23:43;;;;;;;3.60;0.73;;;15.40;80.90;;;;;;5049114;28;20025;-81
2020/12/22 12:26:09;;;;;;;2.40;0.52;;;15.40;80.00;;;;;;5054542;28;20024;-82
2020/12/22 12:28:40;;;;;;;3.25;1.20;;;15.40;79.60;;;;;;5068088;28;20078;-81
2020/12/22 12:31:06;;;;;;;2.20;0.80;;;15.40;79.70;;;;;;5069836;28;20066;-80
2020/12/22 12:33:34;;;;;;;2.97;0.63;;;15.40;79.40;;;;;;5052108;28;20127;-80
2020/12/22 12:35:59;;;;;;;2.28;0.60;;;15.40;79.50;;;;;;5068088;28;20024;-78
2020/12/22 12:38:25;;;;;;;4.55;2.58;;;15.50;79.60;;;;;;5066092;28;20512;-80
2020/12/22 12:40:51;;;;;;;2.38;0.50;;;15.40;79.00;;;;;;5067687;28;20040;-81
2020/12/22 12:43:16;;;;;;;3.65;1.02;;;15.50;78.60;;;;;;5059406;28;20330;-82
2020/12/22 12:45:42;;;;;;;4.00;1.08;;;15.50;78.50;;;;;;5046836;28;20032;-80
2020/12/22 12:48:08;;;;;;;2.97;0.60;;;15.50;78.30;;;;;;5079190;28;20033;-80
2020/12/22 12:50:33;;;;;;;4.45;0.82;;;15.40;78.10;;;;;;5050748;28;20153;-79
2020/12/22 12:52:59;;;;;;;5.35;1.20;;;15.40;78.20;;;;;;5048349;28;20041;-76